Houei No.1 — JD3291 — position and weather

sailwx.info

Track history (hours):
 
Tides and Currents Weather Stations Pressure Air Temp Water Temp Dewpoint Dewpoint Depression Visibility Wind Speed Wind Dir Waves Ship Positions

Houei No.1

Last reported at 2017-Dec-16 11:00 UTC. Time now 2017-Dec-16 11:20 UTC.
Position N 33°28' E 131°57'.

Length 79 m; draft 5.3 m.

Type: Tanker. MMSI: 431003155.

Date/timePositionNaut miles runAvg speedWind from/ knotsBaromVisibWave heightAir tempDewpointWater temp
2017-Dec-16 11:00N 33°28' E 131°57'611.5
2017-Dec-16 10:29N 33°24' E 131°51'611.8
2017-Dec-16 10:00N 33°20' E 131°46'6 1.4
2017-Dec-16 05:55N 33°17' E 131°41'1 2.2
2017-Dec-16 05:30N 33°17' E 131°40'1 1.4
2017-Dec-16 05:00N 33°16' E 131°40'0 0.0
2017-Dec-15 23:49N 33°16' E 131°40'0 0.8
2017-Dec-15 23:28N 33°17' E 131°40'1 1.2
2017-Dec-15 23:00N 33°17' E 131°39'0 0.7
2017-Dec-15 22:30N 33°17' E 131°40'4 8.6
2017-Dec-15 21:59N 33°21' E 131°43'611.5
2017-Dec-15 21:29N 33°25' E 131°47'611.2
2017-Dec-15 21:00N 33°29' E 131°52'2311.1
2017-Dec-15 18:53N 33°43' E 132°14'711.8
2017-Dec-15 18:19N 33°47' E 132°20'612.0
2017-Dec-15 17:51N 33°51' E 132°26'512.4
2017-Dec-15 17:29N 33°55' E 132°29'712.8
2017-Dec-15 16:55N 33°60' E 132°35'512.7
2017-Dec-15 16:30N 34°03' E 132°41'9012.1
2017-Dec-15 09:02N 34°27' E 134°26'212.8
2017-Dec-15 08:51N 34°28' E 134°29'512.6
2017-Dec-15 08:29N 34°29' E 134°34'612.8
2017-Dec-15 08:00N 34°31' E 134°41'712.9
2017-Dec-15 07:30N 34°34' E 134°48'612.7
2017-Dec-15 07:00N 34°36' E 134°55'611.2
2017-Dec-15 06:30N 34°37' E 135°02'612.0
2017-Dec-15 06:00N 34°36' E 135°09'612.4
2017-Dec-15 05:30N 34°36' E 135°17'612.3
2017-Dec-15 05:00N 34°36' E 135°24'2 3.6
2017-Dec-15 04:28N 34°34' E 135°26'0 0.0
2017-Dec-15 03:55N 34°34' E 135°26'0 0.0
2017-Dec-15 02:28N 34°34' E 135°26'0 0.0
2017-Dec-15 00:58N 34°34' E 135°26'0 0.0
2017-Dec-15 00:28N 34°34' E 135°26'2 0.4
2017-Dec-14 18:29N 34°35' E 135°23'0 0.0
2017-Dec-14 17:59N 34°35' E 135°23'0 0.0
2017-Dec-14 17:29N 34°35' E 135°23'0 0.0
2017-Dec-14 16:59N 34°35' E 135°23'0 0.1
2017-Dec-14 16:29N 34°35' E 135°23'0 0.0
2017-Dec-14 15:59N 34°35' E 135°23'0 0.0
2017-Dec-14 14:59N 34°35' E 135°23'0 0.0
2017-Dec-14 14:29N 34°35' E 135°23'0 0.0
2017-Dec-14 13:59N 34°35' E 135°23'0 0.0
2017-Dec-14 13:29N 34°35' E 135°23'0 0.0
2017-Dec-14 12:59N 34°35' E 135°23'0 0.0
2017-Dec-14 12:29N 34°35' E 135°23'0 0.0
2017-Dec-14 11:59N 34°35' E 135°23'0 0.0
2017-Dec-14 11:29N 34°35' E 135°23'1 1.3
2017-Dec-14 11:00N 34°35' E 135°22'612.4
2017-Dec-14 10:30N 34°35' E 135°15'713.5
2017-Dec-14 10:00N 34°35' E 135°06'611.7
2017-Dec-14 09:30N 34°37' E 134°60'611.9
2017-Dec-14 09:00N 34°35' E 134°53'611.9
2017-Dec-14 08:28N 34°32' E 134°46'612.5
2017-Dec-14 08:00N 34°30' E 134°40'9 0.6
2017-Dec-13 16:00N 34°28' E 134°29'611.9
2017-Dec-13 15:30N 34°30' E 134°36'611.7
2017-Dec-13 15:00N 34°32' E 134°42'611.1
2017-Dec-13 14:30N 34°34' E 134°49'5 9.9
2017-Dec-13 14:00N 34°36' E 134°54'5 9.9
2017-Dec-13 13:30N 34°38' E 134°60'5 9.2
2017-Dec-13 13:00N 34°36' E 135°05'611.3
2017-Dec-13 12:30N 34°35' E 135°12'611.8
2017-Dec-13 12:00N 34°33' E 135°19'510.4
2017-Dec-13 11:30N 34°32' E 135°24'0 0.0
2017-Dec-13 11:00N 34°32' E 135°24'0 0.0
2017-Dec-13 10:28N 34°32' E 135°24'0 0.0
2017-Dec-13 09:58N 34°32' E 135°24'0 0.0
2017-Dec-13 09:28N 34°32' E 135°24'0 0.0
2017-Dec-13 08:58N 34°32' E 135°24'0 0.0
2017-Dec-13 08:28N 34°32' E 135°24'0 0.0
2017-Dec-13 07:58N 34°32' E 135°24'0 0.0
2017-Dec-13 07:28N 34°32' E 135°24'0 0.0
2017-Dec-13 06:58N 34°32' E 135°24'0 0.0
2017-Dec-13 06:28N 34°32' E 135°24'0 0.0
2017-Dec-13 05:58N 34°32' E 135°24'2 3.3
2017-Dec-13 05:30N 34°32' E 135°23'713.4
2017-Dec-13 05:00N 34°29' E 135°16'713.3
2017-Dec-13 04:30N 34°25' E 135°09'613.1
2017-Dec-13 04:00N 34°21' E 135°04'611.8
2017-Dec-13 03:30N 34°16' E 134°59'612.0
2017-Dec-13 03:00N 34°10' E 134°57'612.5
2017-Dec-13 02:30N 34°05' E 134°54'9 0.9
2017-Dec-12 15:55N 33°60' E 134°44'512.5
2017-Dec-12 15:30N 34°05' E 134°42'712.4
2017-Dec-12 14:58N 34°11' E 134°40'612.2
2017-Dec-12 14:30N 34°16' E 134°36'612.9
2017-Dec-12 14:00N 34°18' E 134°29'5 0.2
2017-Dec-11 02:35N 34°21' E 134°24'211.1
2017-Dec-11 02:23N 34°21' E 134°26'411.3
2017-Dec-11 01:59N 34°19' E 134°31'910.9
2017-Dec-11 01:08N 34°13' E 134°40'311.3
2017-Dec-11 00:54N 34°11' E 134°42'411.3
2017-Dec-11 00:30N 34°08' E 134°45'611.2
2017-Dec-10 23:58N 34°03' E 134°50'511.3
2017-Dec-10 23:30N 33°59' E 134°54'710.7
2017-Dec-10 22:51N 33°54' E 134°59'104 8.1
2017-Dec-10 09:55N 34°37' E 136°54'511.7
2017-Dec-10 09:28N 34°41' E 136°49'612.0
2017-Dec-10 09:00N 34°46' E 136°46'611.9
2017-Dec-10 08:30N 34°51' E 136°43'611.9
2017-Dec-10 08:01N 34°57' E 136°40'2 2.9
2017-Dec-10 07:26N 34°56' E 136°38'0 0.0
2017-Dec-10 06:59N 34°56' E 136°38'0 0.0
2017-Dec-10 06:29N 34°56' E 136°38'0 0.0
2017-Dec-10 05:59N 34°56' E 136°38'0 0.0
2017-Dec-10 05:26N 34°56' E 136°38'0 0.0
2017-Dec-10 04:59N 34°56' E 136°38'0 0.0
2017-Dec-10 04:29N 34°56' E 136°38'0 0.0
2017-Dec-10 03:59N 34°56' E 136°38'0 0.0
2017-Dec-10 03:28N 34°56' E 136°38'0 0.0
2017-Dec-10 03:01N 34°56' E 136°38'2 4.3
2017-Dec-10 02:30N 34°57' E 136°41'1 1.5
2017-Dec-10 02:00N 34°57' E 136°42'0 0.0
2017-Dec-10 01:30N 34°57' E 136°42'0 0.0
2017-Dec-10 01:00N 34°57' E 136°42'0 0.0
2017-Dec-10 00:30N 34°57' E 136°42'0 0.0
2017-Dec-10 00:00N 34°57' E 136°42'0 0.0
2017-Dec-09 23:30N 34°57' E 136°42'0 0.0
2017-Dec-09 23:00N 34°57' E 136°42'3 5.8
2017-Dec-09 22:30N 34°54' E 136°43'713.1
2017-Dec-09 22:00N 34°48' E 136°46'713.2
2017-Dec-09 21:30N 34°42' E 136°49'103 8.2
2017-Dec-09 08:52N 33°51' E 135°01'513.9
2017-Dec-09 08:30N 33°55' E 134°57'713.8
2017-Dec-09 08:00N 34°01' E 134°51'714.3
2017-Dec-09 07:30N 34°06' E 134°46'714.4
2017-Dec-09 07:00N 34°12' E 134°41'713.7
2017-Dec-09 06:30N 34°16' E 134°35'813.7
2017-Dec-09 05:54N 34°20' E 134°26'83 3.9
2017-Dec-08 09:00N 34°05' E 132°47'612.4
2017-Dec-08 08:30N 34°02' E 132°41'911.7
2017-Dec-08 07:44N 33°57' E 132°32'411.7
2017-Dec-08 07:21N 33°54' E 132°28'512.2
2017-Dec-08 06:59N 33°50' E 132°25'812.2
2017-Dec-08 06:18N 33°44' E 132°19'2112.3
2017-Dec-08 04:34N 33°30' E 131°59'112.7
2017-Dec-08 04:30N 33°29' E 131°58'612.5
2017-Dec-08 03:59N 33°25' E 131°52'712.8
2017-Dec-08 03:28N 33°21' E 131°46'612.9
2017-Dec-08 02:59N 33°17' E 131°41'0 0.1
2017-Dec-07 23:15N 33°17' E 131°41'1 3.6
2017-Dec-07 22:59N 33°18' E 131°41'4 9.1
2017-Dec-07 22:30N 33°22' E 131°42'0 0.0
2017-Dec-07 21:59N 33°22' E 131°42'0 0.0
2017-Dec-07 21:29N 33°22' E 131°42'0 0.0
2017-Dec-07 20:56N 33°22' E 131°42'0 0.0
2017-Dec-07 20:29N 33°22' E 131°42'0 0.0
2017-Dec-07 19:59N 33°22' E 131°42'0 0.0
2017-Dec-07 19:23N 33°22' E 131°42'0 0.0
2017-Dec-07 18:59N 33°22' E 131°42'4 8.6
2017-Dec-07 18:30N 33°24' E 131°47'714.2
2017-Dec-07 18:00N 33°28' E 131°53'1014.3
2017-Dec-07 17:16N 33°35' E 132°03'1313.6
2017-Dec-07 16:20N 33°43' E 132°14'913.5
2017-Dec-07 15:39N 33°49' E 132°23'212.9
2017-Dec-07 15:27N 33°51' E 132°25'912.0
2017-Dec-07 14:43N 33°57' E 132°33'311.7
2017-Dec-07 14:27N 33°60' E 132°35'511.9
2017-Dec-07 14:00N 34°03' E 132°40'  
Track history (hours):
 
Tides and Currents Weather Stations Pressure Air Temp Water Temp Dewpoint Dewpoint Depression Visibility Wind Speed Wind Dir Waves Ship Positions

Houei No.1

Last reported at 2017-Dec-16 11:00 UTC. Time now 2017-Dec-16 11:20 UTC.
Position N 33°28' E 131°57'.

Length 79 m; draft 5.3 m.

Type: Tanker. MMSI: 431003155.

Date/timePositionNaut miles runAvg speedWind from/ knotsBaromVisibWave heightAir tempDewpointWater temp
2017-Dec-16 11:00N 33°28' E 131°57'611.5
2017-Dec-16 10:29N 33°24' E 131°51'611.8
2017-Dec-16 10:00N 33°20' E 131°46'6 1.4
2017-Dec-16 05:55N 33°17' E 131°41'1 2.2
2017-Dec-16 05:30N 33°17' E 131°40'1 1.4
2017-Dec-16 05:00N 33°16' E 131°40'0 0.0
2017-Dec-15 23:49N 33°16' E 131°40'0 0.8
2017-Dec-15 23:28N 33°17' E 131°40'1 1.2
2017-Dec-15 23:00N 33°17' E 131°39'0 0.7
2017-Dec-15 22:30N 33°17' E 131°40'4 8.6
2017-Dec-15 21:59N 33°21' E 131°43'611.5
2017-Dec-15 21:29N 33°25' E 131°47'611.2
2017-Dec-15 21:00N 33°29' E 131°52'2311.1
2017-Dec-15 18:53N 33°43' E 132°14'711.8
2017-Dec-15 18:19N 33°47' E 132°20'612.0
2017-Dec-15 17:51N 33°51' E 132°26'512.4
2017-Dec-15 17:29N 33°55' E 132°29'712.8
2017-Dec-15 16:55N 33°60' E 132°35'512.7
2017-Dec-15 16:30N 34°03' E 132°41'9012.1
2017-Dec-15 09:02N 34°27' E 134°26'212.8
2017-Dec-15 08:51N 34°28' E 134°29'512.6
2017-Dec-15 08:29N 34°29' E 134°34'612.8
2017-Dec-15 08:00N 34°31' E 134°41'712.9
2017-Dec-15 07:30N 34°34' E 134°48'612.7
2017-Dec-15 07:00N 34°36' E 134°55'611.2
2017-Dec-15 06:30N 34°37' E 135°02'612.0
2017-Dec-15 06:00N 34°36' E 135°09'612.4
2017-Dec-15 05:30N 34°36' E 135°17'612.3
2017-Dec-15 05:00N 34°36' E 135°24'2 3.6
2017-Dec-15 04:28N 34°34' E 135°26'0 0.0
2017-Dec-15 03:55N 34°34' E 135°26'0 0.0
2017-Dec-15 02:28N 34°34' E 135°26'0 0.0
2017-Dec-15 00:58N 34°34' E 135°26'0 0.0
2017-Dec-15 00:28N 34°34' E 135°26'2 0.4
2017-Dec-14 18:29N 34°35' E 135°23'0 0.0
2017-Dec-14 17:59N 34°35' E 135°23'0 0.0
2017-Dec-14 17:29N 34°35' E 135°23'0 0.0
2017-Dec-14 16:59N 34°35' E 135°23'0 0.1
2017-Dec-14 16:29N 34°35' E 135°23'0 0.0
2017-Dec-14 15:59N 34°35' E 135°23'0 0.0
2017-Dec-14 14:59N 34°35' E 135°23'0 0.0
2017-Dec-14 14:29N 34°35' E 135°23'0 0.0
2017-Dec-14 13:59N 34°35' E 135°23'0 0.0
2017-Dec-14 13:29N 34°35' E 135°23'0 0.0
2017-Dec-14 12:59N 34°35' E 135°23'0 0.0
2017-Dec-14 12:29N 34°35' E 135°23'0 0.0
2017-Dec-14 11:59N 34°35' E 135°23'0 0.0
2017-Dec-14 11:29N 34°35' E 135°23'1 1.3
2017-Dec-14 11:00N 34°35' E 135°22'612.4
2017-Dec-14 10:30N 34°35' E 135°15'713.5
2017-Dec-14 10:00N 34°35' E 135°06'611.7
2017-Dec-14 09:30N 34°37' E 134°60'611.9
2017-Dec-14 09:00N 34°35' E 134°53'611.9
2017-Dec-14 08:28N 34°32' E 134°46'612.5
2017-Dec-14 08:00N 34°30' E 134°40'9 0.6
2017-Dec-13 16:00N 34°28' E 134°29'611.9
2017-Dec-13 15:30N 34°30' E 134°36'611.7
2017-Dec-13 15:00N 34°32' E 134°42'611.1
2017-Dec-13 14:30N 34°34' E 134°49'5 9.9
2017-Dec-13 14:00N 34°36' E 134°54'5 9.9
2017-Dec-13 13:30N 34°38' E 134°60'5 9.2
2017-Dec-13 13:00N 34°36' E 135°05'611.3
2017-Dec-13 12:30N 34°35' E 135°12'611.8
2017-Dec-13 12:00N 34°33' E 135°19'510.4
2017-Dec-13 11:30N 34°32' E 135°24'0 0.0
2017-Dec-13 11:00N 34°32' E 135°24'0 0.0
2017-Dec-13 10:28N 34°32' E 135°24'0 0.0
2017-Dec-13 09:58N 34°32' E 135°24'0 0.0
2017-Dec-13 09:28N 34°32' E 135°24'0 0.0
2017-Dec-13 08:58N 34°32' E 135°24'0 0.0
2017-Dec-13 08:28N 34°32' E 135°24'0 0.0
2017-Dec-13 07:58N 34°32' E 135°24'0 0.0
2017-Dec-13 07:28N 34°32' E 135°24'0 0.0
2017-Dec-13 06:58N 34°32' E 135°24'0 0.0
2017-Dec-13 06:28N 34°32' E 135°24'0 0.0
2017-Dec-13 05:58N 34°32' E 135°24'2 3.3
2017-Dec-13 05:30N 34°32' E 135°23'713.4
2017-Dec-13 05:00N 34°29' E 135°16'713.3
2017-Dec-13 04:30N 34°25' E 135°09'613.1
2017-Dec-13 04:00N 34°21' E 135°04'611.8
2017-Dec-13 03:30N 34°16' E 134°59'612.0
2017-Dec-13 03:00N 34°10' E 134°57'612.5
2017-Dec-13 02:30N 34°05' E 134°54'9 0.9
2017-Dec-12 15:55N 33°60' E 134°44'512.5
2017-Dec-12 15:30N 34°05' E 134°42'712.4
2017-Dec-12 14:58N 34°11' E 134°40'612.2
2017-Dec-12 14:30N 34°16' E 134°36'612.9
2017-Dec-12 14:00N 34°18' E 134°29'5 0.2
2017-Dec-11 02:35N 34°21' E 134°24'211.1
2017-Dec-11 02:23N 34°21' E 134°26'411.3
2017-Dec-11 01:59N 34°19' E 134°31'910.9
2017-Dec-11 01:08N 34°13' E 134°40'311.3
2017-Dec-11 00:54N 34°11' E 134°42'411.3
2017-Dec-11 00:30N 34°08' E 134°45'611.2
2017-Dec-10 23:58N 34°03' E 134°50'511.3
2017-Dec-10 23:30N 33°59' E 134°54'710.7
2017-Dec-10 22:51N 33°54' E 134°59'104 8.1
2017-Dec-10 09:55N 34°37' E 136°54'511.7
2017-Dec-10 09:28N 34°41' E 136°49'612.0
2017-Dec-10 09:00N 34°46' E 136°46'611.9
2017-Dec-10 08:30N 34°51' E 136°43'611.9
2017-Dec-10 08:01N 34°57' E 136°40'2 2.9
2017-Dec-10 07:26N 34°56' E 136°38'0 0.0
2017-Dec-10 06:59N 34°56' E 136°38'0 0.0
2017-Dec-10 06:29N 34°56' E 136°38'0 0.0
2017-Dec-10 05:59N 34°56' E 136°38'0 0.0
2017-Dec-10 05:26N 34°56' E 136°38'0 0.0
2017-Dec-10 04:59N 34°56' E 136°38'0 0.0
2017-Dec-10 04:29N 34°56' E 136°38'0 0.0
2017-Dec-10 03:59N 34°56' E 136°38'0 0.0
2017-Dec-10 03:28N 34°56' E 136°38'0 0.0
2017-Dec-10 03:01N 34°56' E 136°38'2 4.3
2017-Dec-10 02:30N 34°57' E 136°41'1 1.5
2017-Dec-10 02:00N 34°57' E 136°42'0 0.0
2017-Dec-10 01:30N 34°57' E 136°42'0 0.0
2017-Dec-10 01:00N 34°57' E 136°42'0 0.0
2017-Dec-10 00:30N 34°57' E 136°42'0 0.0
2017-Dec-10 00:00N 34°57' E 136°42'0 0.0
2017-Dec-09 23:30N 34°57' E 136°42'0 0.0
2017-Dec-09 23:00N 34°57' E 136°42'3 5.8
2017-Dec-09 22:30N 34°54' E 136°43'713.1
2017-Dec-09 22:00N 34°48' E 136°46'713.2
2017-Dec-09 21:30N 34°42' E 136°49'103 8.2
2017-Dec-09 08:52N 33°51' E 135°01'513.9
2017-Dec-09 08:30N 33°55' E 134°57'713.8
2017-Dec-09 08:00N 34°01' E 134°51'714.3
2017-Dec-09 07:30N 34°06' E 134°46'714.4
2017-Dec-09 07:00N 34°12' E 134°41'713.7
2017-Dec-09 06:30N 34°16' E 134°35'813.7
2017-Dec-09 05:54N 34°20' E 134°26'83 3.9
2017-Dec-08 09:00N 34°05' E 132°47'612.4
2017-Dec-08 08:30N 34°02' E 132°41'911.7
2017-Dec-08 07:44N 33°57' E 132°32'411.7
2017-Dec-08 07:21N 33°54' E 132°28'512.2
2017-Dec-08 06:59N 33°50' E 132°25'812.2
2017-Dec-08 06:18N 33°44' E 132°19'2112.3
2017-Dec-08 04:34N 33°30' E 131°59'112.7
2017-Dec-08 04:30N 33°29' E 131°58'612.5
2017-Dec-08 03:59N 33°25' E 131°52'712.8
2017-Dec-08 03:28N 33°21' E 131°46'612.9
2017-Dec-08 02:59N 33°17' E 131°41'0 0.1
2017-Dec-07 23:15N 33°17' E 131°41'1 3.6
2017-Dec-07 22:59N 33°18' E 131°41'4 9.1
2017-Dec-07 22:30N 33°22' E 131°42'0 0.0
2017-Dec-07 21:59N 33°22' E 131°42'0 0.0
2017-Dec-07 21:29N 33°22' E 131°42'0 0.0
2017-Dec-07 20:56N 33°22' E 131°42'0 0.0
2017-Dec-07 20:29N 33°22' E 131°42'0 0.0
2017-Dec-07 19:59N 33°22' E 131°42'0 0.0
2017-Dec-07 19:23N 33°22' E 131°42'0 0.0
2017-Dec-07 18:59N 33°22' E 131°42'4 8.6
2017-Dec-07 18:30N 33°24' E 131°47'714.2
2017-Dec-07 18:00N 33°28' E 131°53'1014.3
2017-Dec-07 17:16N 33°35' E 132°03'1313.6
2017-Dec-07 16:20N 33°43' E 132°14'913.5
2017-Dec-07 15:39N 33°49' E 132°23'212.9
2017-Dec-07 15:27N 33°51' E 132°25'912.0
2017-Dec-07 14:43N 33°57' E 132°33'311.7
2017-Dec-07 14:27N 33°60' E 132°35'511.9
2017-Dec-07 14:00N 34°03' E 132°40'  

Dump ship's entire track history